Time;durP1;ratioP1;P1;durP2;ratioP2;P2;SDS_P1;SDS_P2;PMS_P1;PMS_P2;Temp;Humidity;BMP_temperature;BMP_pressure;BME280_temperature;BME280_humidity;BME280_pressure;Samples;Min_cycle;Max_cycle;Signal;HPM_P1;HPM_P2
2021/05/13 00:00:25;;;;;;;35.05;4.40;;;11.40;99.90;;;;;;4979016;28;20050;-79
2021/05/13 00:02:51;;;;;;;40.28;4.72;;;11.50;99.90;;;;;;4978764;28;20046;-78
2021/05/13 00:05:17;;;;;;;33.55;4.45;;;11.60;99.90;;;;;;4981721;28;20081;-78
2021/05/13 00:07:43;;;;;;;38.40;4.45;;;11.60;99.90;;;;;;4978486;28;20402;-78
2021/05/13 00:10:13;;;;;;;34.42;4.18;;;11.60;99.90;;;;;;4989375;28;20023;-78
2021/05/13 00:12:52;;;;;;;45.75;4.70;;;11.60;99.90;;;;;;4975495;28;20434;-78
2021/05/13 00:15:24;;;;;;;38.40;4.90;;;11.60;99.90;;;;;;4985711;28;20038;-78
2021/05/13 00:17:50;;;;;;;40.10;4.23;;;11.60;99.90;;;;;;4917615;29;655863;-77
2021/05/13 00:20:20;;;;;;;29.70;3.65;;;11.60;99.90;;;;;;4948016;28;20027;-79
2021/05/13 00:22:46;;;;;;;38.22;4.85;;;11.70;99.90;;;;;;4954739;28;20031;-78
2021/05/13 00:25:13;;;;;;;38.08;4.05;;;11.70;99.90;;;;;;4937061;29;20035;-79
2021/05/13 00:27:38;;;;;;;39.22;3.65;;;11.70;99.90;;;;;;4954146;28;20024;-78
2021/05/13 00:30:06;;;;;;;40.25;4.40;;;11.70;99.90;;;;;;4945266;29;20039;-79
2021/05/13 00:32:33;;;;;;;27.92;2.92;;;11.80;99.90;;;;;;4945100;29;20031;-78
2021/05/13 00:34:58;;;;;;;34.33;3.53;;;11.80;99.90;;;;;;4941828;29;20027;-79
2021/05/13 00:37:24;;;;;;;28.17;3.67;;;11.80;99.90;;;;;;4936431;29;20028;-79
2021/05/13 00:39:50;;;;;;;26.25;4.00;;;11.80;99.90;;;;;;4944881;29;20500;-79
2021/05/13 00:42:15;;;;;;;30.63;3.65;;;11.70;99.90;;;;;;4934681;29;20027;-79
2021/05/13 00:44:45;;;;;;;22.45;3.25;;;11.80;99.90;;;;;;4936121;29;20028;-79
2021/05/13 00:47:12;;;;;;;31.05;3.97;;;11.90;99.90;;;;;;4944741;29;20479;-79
2021/05/13 00:49:39;;;;;;;44.22;4.35;;;11.90;99.90;;;;;;4946653;28;20067;-79
2021/05/13 00:52:09;;;;;;;39.08;4.30;;;11.90;99.90;;;;;;4942493;28;20474;-79
2021/05/13 00:54:38;;;;;;;36.83;4.55;;;12.00;99.90;;;;;;4942678;28;20031;-79
2021/05/13 00:57:06;;;;;;;36.70;4.82;;;12.10;99.90;;;;;;4941963;28;20035;-79
2021/05/13 00:59:34;;;;;;;27.13;4.13;;;12.10;99.90;;;;;;4940787;29;20042;-79
2021/05/13 01:02:00;;;;;;;28.52;4.47;;;12.10;99.90;;;;;;4936261;29;20024;-79
2021/05/13 01:04:25;;;;;;;32.08;4.47;;;12.10;99.90;;;;;;4942186;29;20024;-79
2021/05/13 01:06:51;;;;;;;33.55;5.20;;;12.10;99.90;;;;;;4949769;29;20115;-79
2021/05/13 01:09:22;;;;;;;28.90;4.68;;;12.10;99.90;;;;;;4936013;29;20027;-79
2021/05/13 01:11:53;;;;;;;39.92;4.80;;;12.00;99.90;;;;;;4940700;29;20133;-79
2021/05/13 01:17:37;;;;;;;26.83;4.10;;;11.90;99.90;;;;;;4958006;28;20098;-79
2021/05/13 01:20:03;;;;;;;34.10;5.00;;;11.90;99.90;;;;;;4969096;28;20031;-79
2021/05/13 01:22:29;;;;;;;25.15;3.88;;;11.80;99.90;;;;;;4967215;28;20027;-79
2021/05/13 01:24:55;;;;;;;37.10;4.50;;;11.80;99.90;;;;;;4992056;28;20505;-79
2021/05/13 01:27:20;;;;;;;21.70;3.58;;;11.80;99.90;;;;;;4984426;28;20027;-79
2021/05/13 01:29:49;;;;;;;28.70;3.67;;;11.90;99.90;;;;;;4981453;28;20485;-79
2021/05/13 01:32:17;;;;;;;23.70;3.50;;;11.80;99.90;;;;;;4958581;28;20030;-79
2021/05/13 01:34:43;;;;;;;29.38;4.07;;;11.80;99.90;;;;;;4973735;28;20118;-79
2021/05/13 01:37:09;;;;;;;29.00;4.03;;;11.80;99.90;;;;;;4974015;28;20442;-79
2021/05/13 01:39:35;;;;;;;34.63;4.07;;;11.80;99.90;;;;;;4973462;28;20118;-79
2021/05/13 01:42:01;;;;;;;30.10;4.00;;;11.70;99.90;;;;;;4983857;28;20109;-79
2021/05/13 01:44:26;;;;;;;30.48;3.45;;;11.80;99.90;;;;;;4984283;28;20034;-79
2021/05/13 01:46:52;;;;;;;31.58;4.15;;;11.90;99.90;;;;;;4986960;28;20039;-79
2021/05/13 01:49:23;;;;;;;26.60;3.88;;;11.90;99.90;;;;;;4973803;28;20498;-79
2021/05/13 01:51:49;;;;;;;26.67;4.28;;;11.90;99.90;;;;;;4988529;28;20044;-79
2021/05/13 01:54:16;;;;;;;42.50;4.97;;;12.00;99.90;;;;;;4992896;28;20414;-78
2021/05/13 01:56:43;;;;;;;27.10;3.65;;;12.00;99.90;;;;;;4956797;28;20069;-78
2021/05/13 01:59:09;;;;;;;32.63;3.95;;;12.10;99.90;;;;;;4969050;28;20022;-79
2021/05/13 02:01:35;;;;;;;32.53;4.38;;;12.10;99.90;;;;;;4974184;28;20034;-79
2021/05/13 02:04:01;;;;;;;31.52;4.50;;;12.10;99.90;;;;;;4955812;28;20509;-79
2021/05/13 02:06:27;;;;;;;28.85;4.07;;;12.10;99.90;;;;;;4989360;28;20560;-79
2021/05/13 02:08:53;;;;;;;26.42;3.38;;;12.10;99.90;;;;;;4989416;28;20038;-78
2021/05/13 02:11:19;;;;;;;36.22;3.63;;;12.10;99.90;;;;;;4973783;28;20055;-79
2021/05/13 02:13:44;;;;;;;24.90;4.38;;;12.10;99.90;;;;;;4976041;28;20026;-79
2021/05/13 02:16:10;;;;;;;34.97;3.75;;;12.00;99.90;;;;;;4973055;28;20190;-79
2021/05/13 02:18:36;;;;;;;26.00;3.53;;;12.00;99.90;;;;;;4977720;28;20502;-78
2021/05/13 02:21:01;;;;;;;33.45;4.60;;;11.90;99.90;;;;;;4979427;28;20034;-78
2021/05/13 02:23:27;;;;;;;29.98;5.00;;;12.00;99.90;;;;;;4993230;28;20065;-79
2021/05/13 02:25:53;;;;;;;26.08;3.05;;;12.00;99.90;;;;;;4988494;28;20030;-78
2021/05/13 02:28:19;;;;;;;27.90;3.28;;;12.10;99.90;;;;;;4992831;28;20416;-79
2021/05/13 02:30:45;;;;;;;27.10;3.20;;;12.10;99.90;;;;;;4973884;28;20029;-79
2021/05/13 02:33:11;;;;;;;26.65;3.40;;;12.10;99.90;;;;;;4973271;28;20069;-78
2021/05/13 02:35:37;;;;;;;19.95;3.53;;;12.10;99.90;;;;;;4974114;28;20050;-78
2021/05/13 02:38:03;;;;;;;31.50;3.50;;;12.00;99.90;;;;;;4964255;28;20031;-78
2021/05/13 02:40:29;;;;;;;29.92;3.33;;;12.10;99.90;;;;;;4982930;28;20089;-78
2021/05/13 02:42:55;;;;;;;21.65;3.10;;;12.00;99.90;;;;;;4992682;28;20033;-78
2021/05/13 02:45:21;;;;;;;25.50;3.72;;;12.10;99.90;;;;;;4971837;28;20027;-78
2021/05/13 02:47:47;;;;;;;13.30;2.13;;;12.00;99.90;;;;;;4984658;28;20026;-79
2021/05/13 02:50:15;;;;;;;14.93;2.08;;;11.80;99.90;;;;;;4975826;28;20034;-78
2021/05/13 02:52:41;;;;;;;14.18;1.95;;;11.50;99.90;;;;;;4992752;28;20450;-78
2021/05/13 02:55:11;;;;;;;21.88;2.80;;;11.30;99.90;;;;;;4976417;28;20050;-78
2021/05/13 02:57:37;;;;;;;26.27;3.13;;;11.30;99.90;;;;;;4976818;28;20034;-78
2021/05/13 03:00:19;;;;;;;29.90;3.08;;;11.30;99.90;;;;;;4973203;28;20457;-78
2021/05/13 03:02:45;;;;;;;20.20;2.90;;;11.30;99.90;;;;;;4983048;28;20030;-78
2021/05/13 03:05:13;;;;;;;32.60;3.47;;;11.30;99.90;;;;;;4972461;28;20023;-79
2021/05/13 03:08:00;;;;;;;29.85;3.72;;;11.30;99.90;;;;;;4985371;28;20026;-78
2021/05/13 03:10:36;;;;;;;27.65;3.38;;;11.30;99.90;;;;;;4962290;28;20117;-78
2021/05/13 03:13:03;;;;;;;26.42;2.95;;;11.40;99.90;;;;;;4978530;28;20030;-79
2021/05/13 03:15:29;;;;;;;23.67;3.22;;;11.50;99.90;;;;;;4983185;28;20105;-78
2021/05/13 03:17:55;;;;;;;29.80;3.95;;;11.50;99.90;;;;;;4974676;28;20092;-78
2021/05/13 03:20:24;;;;;;;26.15;4.07;;;11.50;99.90;;;;;;4981983;28;20118;-78
2021/05/13 03:22:54;;;;;;;33.45;3.60;;;11.50;99.90;;;;;;4972090;28;20154;-78
2021/05/13 03:25:26;;;;;;;29.73;4.35;;;11.60;99.90;;;;;;4990551;28;20031;-78
2021/05/13 03:27:55;;;;;;;29.60;3.72;;;11.70;99.90;;;;;;4977299;28;20049;-78
2021/05/13 03:30:24;;;;;;;43.55;4.20;;;11.70;99.90;;;;;;4985375;28;20425;-78
2021/05/13 03:32:51;;;;;;;45.00;4.43;;;11.70;99.90;;;;;;4989545;28;20031;-78
2021/05/13 03:35:17;;;;;;;27.15;3.65;;;11.70;99.90;;;;;;4982960;28;20023;-78
2021/05/13 03:37:42;;;;;;;26.52;3.65;;;11.70;99.90;;;;;;4975760;28;20508;-78
2021/05/13 03:40:09;;;;;;;34.88;3.25;;;11.70;99.90;;;;;;4975880;28;20031;-78
2021/05/13 03:42:35;;;;;;;31.17;3.85;;;11.70;99.90;;;;;;4963927;28;20023;-78
2021/05/13 03:45:01;;;;;;;29.23;2.92;;;11.70;99.90;;;;;;4977380;28;20027;-78
2021/05/13 03:47:26;;;;;;;32.65;3.25;;;11.70;99.90;;;;;;4978075;28;20034;-78
2021/05/13 03:49:52;;;;;;;30.58;3.75;;;11.90;99.90;;;;;;4985549;28;20126;-78
2021/05/13 03:52:18;;;;;;;30.85;3.97;;;11.90;99.90;;;;;;4981869;28;20027;-79
2021/05/13 03:54:43;;;;;;;30.52;4.15;;;11.80;99.90;;;;;;4982873;28;20023;-79
2021/05/13 03:57:10;;;;;;;40.53;4.22;;;11.60;99.90;;;;;;4985567;28;20037;-79
2021/05/13 03:59:38;;;;;;;30.38;4.22;;;11.60;99.90;;;;;;4991875;28;20034;-78
2021/05/13 04:04:37;;;;;;;39.47;5.05;;;11.40;99.90;;;;;;4987532;28;20026;-79
2021/05/13 04:07:05;;;;;;;36.45;4.45;;;11.50;99.90;;;;;;4994150;28;20123;-79
2021/05/13 04:09:31;;;;;;;35.55;4.38;;;11.50;99.90;;;;;;4994809;28;20031;-79
2021/05/13 04:11:56;;;;;;;31.05;4.03;;;11.40;99.90;;;;;;4984093;28;20027;-79
2021/05/13 04:14:22;;;;;;;35.88;4.65;;;11.50;99.90;;;;;;4978054;28;20038;-78
2021/05/13 04:16:55;;;;;;;25.48;3.80;;;11.60;99.90;;;;;;4979558;28;20049;-79
2021/05/13 04:19:21;;;;;;;34.13;4.70;;;11.60;99.90;;;;;;4984432;28;20034;-79
2021/05/13 04:21:47;;;;;;;31.48;4.45;;;11.60;99.90;;;;;;4983690;28;20121;-79
2021/05/13 04:24:14;;;;;;;28.92;3.78;;;11.50;99.90;;;;;;4982070;28;20541;-79
2021/05/13 04:26:41;;;;;;;34.13;4.15;;;11.40;99.90;;;;;;4975085;28;20031;-78
2021/05/13 04:29:08;;;;;;;35.05;4.43;;;11.40;99.90;;;;;;4992082;28;20460;-78
2021/05/13 04:31:35;;;;;;;32.95;4.03;;;11.40;99.90;;;;;;4975299;28;20045;-78
2021/05/13 04:34:00;;;;;;;28.38;3.75;;;11.40;99.90;;;;;;4974631;28;20101;-79
2021/05/13 04:36:27;;;;;;;28.83;4.00;;;11.50;99.90;;;;;;4984369;28;20030;-78
2021/05/13 04:38:52;;;;;;;28.33;4.03;;;11.60;99.90;;;;;;4985010;28;20046;-79
2021/05/13 04:41:18;;;;;;;27.00;4.13;;;11.60;99.90;;;;;;4991090;28;20029;-78
2021/05/13 04:43:44;;;;;;;47.08;4.13;;;11.60;99.90;;;;;;4990705;28;20026;-78
2021/05/13 04:46:10;;;;;;;31.05;4.15;;;11.70;99.90;;;;;;4983531;28;20062;-78
2021/05/13 04:51:30;;;;;;;32.30;3.90;;;11.90;99.90;;;;;;4960477;28;20486;-79
2021/05/13 04:53:56;;;;;;;37.95;4.47;;;12.00;99.90;;;;;;4974930;28;20101;-79
2021/05/13 04:56:23;;;;;;;27.55;3.92;;;12.10;99.90;;;;;;4957323;28;20082;-78
2021/05/13 04:58:49;;;;;;;30.02;3.63;;;12.10;99.90;;;;;;4994105;28;20023;-79
2021/05/13 05:01:15;;;;;;;39.13;4.25;;;12.10;99.90;;;;;;4977425;28;20501;-79
2021/05/13 05:03:41;;;;;;;28.05;3.60;;;12.10;99.90;;;;;;4974017;28;20478;-79
2021/05/13 05:06:09;;;;;;;25.48;3.63;;;12.10;99.90;;;;;;4987517;28;20151;-78
2021/05/13 05:08:34;;;;;;;34.72;3.97;;;12.20;99.90;;;;;;4982802;28;20031;-78
2021/05/13 05:11:00;;;;;;;23.88;3.58;;;12.20;99.90;;;;;;4976144;28;20044;-79
2021/05/13 05:13:26;;;;;;;33.13;3.63;;;12.20;99.90;;;;;;4977069;28;20081;-79
2021/05/13 05:15:52;;;;;;;27.00;3.35;;;12.30;99.90;;;;;;4977490;28;20035;-78
2021/05/13 05:18:22;;;;;;;25.35;3.80;;;12.20;99.90;;;;;;4975951;28;20053;-79
2021/05/13 05:20:48;;;;;;;30.20;3.63;;;12.30;99.90;;;;;;4971756;28;20112;-78
2021/05/13 05:23:14;;;;;;;27.25;3.65;;;12.30;99.90;;;;;;4974169;28;20023;-78
2021/05/13 05:25:40;;;;;;;25.23;3.40;;;12.30;99.90;;;;;;4974074;28;20489;-79
2021/05/13 05:28:06;;;;;;;28.45;3.85;;;12.30;99.90;;;;;;4972566;28;20062;-78
2021/05/13 05:30:33;;;;;;;24.85;3.30;;;12.40;99.90;;;;;;4989145;28;20093;-78
2021/05/13 05:33:10;;;;;;;24.73;3.60;;;12.40;99.90;;;;;;4974257;28;20069;-78
2021/05/13 05:35:37;;;;;;;30.50;3.58;;;12.50;99.90;;;;;;4973392;28;20033;-78
2021/05/13 05:38:03;;;;;;;24.67;3.50;;;12.50;99.90;;;;;;4973800;28;20031;-78
2021/05/13 05:40:29;;;;;;;21.83;3.42;;;12.60;99.90;;;;;;4973776;28;20027;-78
2021/05/13 05:42:55;;;;;;;21.58;3.33;;;12.70;99.90;;;;;;4980844;28;20101;-78
2021/05/13 05:45:22;;;;;;;26.08;3.22;;;12.60;99.90;;;;;;4971011;28;20035;-77
2021/05/13 05:47:49;;;;;;;33.55;3.58;;;12.60;99.90;;;;;;4974041;28;20073;-78
2021/05/13 05:50:15;;;;;;;31.70;3.63;;;12.60;99.90;;;;;;4976004;28;20033;-78
2021/05/13 05:52:41;;;;;;;27.27;3.08;;;12.60;99.90;;;;;;4980328;28;20081;-79
2021/05/13 05:55:08;;;;;;;22.35;2.95;;;12.50;99.90;;;;;;4986548;28;20050;-78
2021/05/13 05:57:34;;;;;;;23.83;2.72;;;12.50;99.90;;;;;;4960768;28;20023;-78
2021/05/13 06:00:01;;;;;;;21.70;3.00;;;12.70;99.90;;;;;;4968416;28;20034;-78
2021/05/13 06:02:27;;;;;;;21.73;3.28;;;12.80;99.90;;;;;;4973817;28;20022;-79
2021/05/13 06:04:53;;;;;;;21.52;3.60;;;12.80;99.90;;;;;;4958612;28;20378;-78
2021/05/13 06:07:19;;;;;;;24.70;3.30;;;12.80;99.90;;;;;;4973663;28;20026;-78
2021/05/13 06:09:45;;;;;;;25.02;3.08;;;12.80;99.90;;;;;;4973183;28;20406;-78
2021/05/13 06:12:12;;;;;;;30.52;3.83;;;12.80;99.90;;;;;;4969301;28;20489;-78
2021/05/13 06:14:38;;;;;;;20.35;3.42;;;12.80;99.90;;;;;;4977029;28;20462;-78
2021/05/13 06:17:04;;;;;;;28.38;3.40;;;12.80;99.90;;;;;;4962048;28;20074;-78
2021/05/13 06:19:30;;;;;;;28.80;3.10;;;12.80;99.90;;;;;;4975494;28;20034;-78
2021/05/13 06:21:56;;;;;;;17.58;3.03;;;12.80;99.90;;;;;;4983500;28;20098;-78
2021/05/13 06:24:21;;;;;;;25.88;3.95;;;12.90;99.90;;;;;;4976267;28;20070;-78
2021/05/13 06:26:57;;;;;;;20.73;3.25;;;13.00;99.90;;;;;;4986576;28;20037;-78
2021/05/13 06:29:23;;;;;;;20.23;3.22;;;13.00;99.90;;;;;;4977824;28;20045;-78
2021/05/13 06:31:49;;;;;;;15.23;2.90;;;12.90;99.90;;;;;;4980561;28;20030;-78
2021/05/13 06:34:14;;;;;;;27.00;2.97;;;12.90;99.90;;;;;;4982354;28;20042;-78
2021/05/13 06:36:40;;;;;;;19.42;2.88;;;12.80;99.90;;;;;;4986286;28;20026;-79
2021/05/13 06:39:07;;;;;;;24.80;2.75;;;12.80;99.90;;;;;;4975117;28;20129;-79
2021/05/13 06:41:33;;;;;;;25.92;2.90;;;12.80;99.90;;;;;;4960397;28;20034;-79
2021/05/13 06:43:58;;;;;;;16.17;2.60;;;13.10;99.90;;;;;;4973112;28;20015;-78
2021/05/13 06:46:25;;;;;;;16.17;2.72;;;13.40;99.90;;;;;;4982818;28;20026;-78
2021/05/13 06:48:51;;;;;;;18.08;2.55;;;13.50;99.90;;;;;;4978863;28;20031;-78
2021/05/13 06:51:20;;;;;;;22.02;3.17;;;13.60;99.90;;;;;;4963756;28;20031;-79
2021/05/13 06:53:47;;;;;;;21.23;3.30;;;13.70;99.90;;;;;;4985973;28;20131;-78
2021/05/13 06:56:14;;;;;;;20.88;2.70;;;13.80;99.90;;;;;;4979568;28;20038;-78
2021/05/13 06:58:39;;;;;;;16.08;2.55;;;13.90;99.90;;;;;;4978380;28;20467;-79
2021/05/13 07:01:05;;;;;;;16.55;2.80;;;14.10;99.90;;;;;;4959559;28;20070;-78
2021/05/13 07:03:31;;;;;;;22.63;3.15;;;13.90;99.90;;;;;;4976794;28;20058;-79
2021/05/13 07:05:57;;;;;;;29.65;3.47;;;13.70;99.90;;;;;;4976390;28;20034;-78
2021/05/13 07:08:23;;;;;;;25.27;3.75;;;13.60;99.90;;;;;;4976903;28;20035;-79
2021/05/13 07:10:49;;;;;;;18.83;3.00;;;14.00;99.90;;;;;;4979037;28;20498;-78
2021/05/13 07:13:14;;;;;;;22.20;3.20;;;14.50;99.90;;;;;;4991045;28;20371;-79
2021/05/13 07:15:40;;;;;;;19.15;2.83;;;14.30;99.90;;;;;;4981601;28;20030;-77
2021/05/13 07:18:12;;;;;;;17.08;2.33;;;13.80;99.60;;;;;;4982542;28;20499;-79
2021/05/13 07:20:37;;;;;;;19.30;2.67;;;13.60;99.90;;;;;;4980294;28;20023;-78
2021/05/13 07:23:04;;;;;;;18.42;2.60;;;13.60;99.70;;;;;;4976508;28;20371;-78
2021/05/13 07:25:32;;;;;;;17.92;2.67;;;13.70;99.80;;;;;;4970020;28;20510;-78
2021/05/13 07:27:58;;;;;;;18.13;2.58;;;14.10;99.30;;;;;;4996061;28;20382;-79
2021/05/13 07:30:24;;;;;;;10.93;2.60;;;14.40;98.20;;;;;;4992573;28;20034;-78
2021/05/13 07:32:50;;;;;;;21.27;2.45;;;14.50;98.20;;;;;;4976473;28;20026;-79
2021/05/13 07:35:17;;;;;;;21.08;3.03;;;14.30;98.00;;;;;;4982642;28;20030;-78
2021/05/13 07:37:44;;;;;;;17.73;2.35;;;14.30;98.40;;;;;;4970091;28;20102;-79
2021/05/13 07:40:11;;;;;;;21.02;2.83;;;14.30;99.00;;;;;;4980872;28;20117;-78
2021/05/13 07:42:37;;;;;;;16.45;2.53;;;14.50;97.70;;;;;;4978198;28;20038;-78
2021/05/13 07:45:03;;;;;;;20.73;3.35;;;15.30;98.30;;;;;;4978259;28;20035;-79
2021/05/13 07:47:29;;;;;;;21.48;2.75;;;17.60;93.70;;;;;;4975214;28;20019;-79
2021/05/13 07:49:54;;;;;;;15.18;2.47;;;16.30;94.00;;;;;;4979191;28;20041;-79
2021/05/13 07:52:22;;;;;;;13.82;2.17;;;16.10;95.00;;;;;;4985415;28;20030;-79
2021/05/13 07:54:48;;;;;;;18.42;2.72;;;15.80;95.20;;;;;;4964179;28;20027;-79
2021/05/13 07:57:13;;;;;;;21.05;2.97;;;14.80;96.50;;;;;;4958497;28;20081;-79
2021/05/13 07:59:39;;;;;;;19.50;2.78;;;16.20;95.80;;;;;;4978320;28;20065;-79
2021/05/13 08:02:05;;;;;;;25.17;3.35;;;18.60;90.80;;;;;;4976099;28;20035;-79
2021/05/13 08:04:32;;;;;;;21.70;3.72;;;19.20;89.30;;;;;;4979884;28;20018;-79
2021/05/13 08:06:57;;;;;;;15.43;2.28;;;20.00;86.60;;;;;;4995344;28;20497;-79
2021/05/13 08:09:23;;;;;;;16.30;3.05;;;20.20;83.70;;;;;;4982176;28;20059;-79
2021/05/13 08:11:49;;;;;;;20.23;2.88;;;17.50;87.80;;;;;;4981470;28;20064;-78
2021/05/13 08:14:14;;;;;;;18.73;3.35;;;15.60;93.70;;;;;;4980852;28;20062;-78
2021/05/13 08:16:40;;;;;;;15.95;2.40;;;17.50;90.60;;;;;;4975447;28;20391;-79
2021/05/13 08:19:07;;;;;;;18.90;2.58;;;18.10;87.30;;;;;;4978098;28;20031;-78
2021/05/13 08:21:35;;;;;;;16.33;2.53;;;19.80;82.60;;;;;;4988948;28;20482;-79
2021/05/13 08:24:01;;;;;;;14.32;2.78;;;20.50;79.60;;;;;;4987577;28;20038;-78
2021/05/13 08:26:27;;;;;;;15.65;2.78;;;21.10;78.70;;;;;;4986000;28;20031;-79
2021/05/13 08:28:53;;;;;;;19.10;3.53;;;20.80;76.70;;;;;;4977245;28;20030;-79
2021/05/13 08:31:18;;;;;;;10.68;3.00;;;21.20;76.50;;;;;;4958049;28;20031;-79
2021/05/13 08:33:44;;;;;;;14.70;2.85;;;20.80;78.00;;;;;;4986701;28;20033;-79
2021/05/13 08:36:10;;;;;;;14.73;3.08;;;20.60;78.20;;;;;;4984245;28;20136;-79
2021/05/13 08:38:35;;;;;;;16.60;2.90;;;21.10;78.80;;;;;;4981195;28;20026;-80
2021/05/13 08:41:01;;;;;;;13.57;2.33;;;18.60;81.50;;;;;;4990728;28;20105;-79
2021/05/13 08:43:29;;;;;;;15.23;2.47;;;18.40;86.20;;;;;;4966893;28;20023;-78
2021/05/13 08:45:57;;;;;;;17.08;2.85;;;18.30;84.50;;;;;;4979225;28;20023;-79
2021/05/13 08:48:27;;;;;;;19.10;2.72;;;19.50;81.30;;;;;;4977460;28;20106;-79
2021/05/13 08:50:53;;;;;;;18.83;2.80;;;20.70;77.70;;;;;;4957407;28;20034;-79
2021/05/13 08:53:20;;;;;;;17.58;2.50;;;21.00;74.10;;;;;;4977740;28;20023;-79
2021/05/13 08:55:45;;;;;;;8.57;2.30;;;21.80;73.90;;;;;;4983984;28;20027;-78
2021/05/13 08:58:11;;;;;;;13.82;2.67;;;20.50;73.70;;;;;;4987905;28;20027;-79
2021/05/13 09:00:37;;;;;;;18.98;3.22;;;20.70;73.00;;;;;;4982251;28;20482;-78
2021/05/13 09:03:03;;;;;;;14.98;2.75;;;20.40;77.10;;;;;;4979740;28;20101;-79
2021/05/13 09:05:28;;;;;;;16.98;2.47;;;20.10;76.40;;;;;;4980476;28;20109;-79
2021/05/13 09:07:54;;;;;;;13.07;2.58;;;21.00;74.30;;;;;;4974395;28;20142;-79
2021/05/13 09:10:21;;;;;;;14.73;2.83;;;22.10;72.10;;;;;;4977334;28;20509;-79
2021/05/13 09:12:49;;;;;;;16.35;2.90;;;22.70;69.80;;;;;;4962283;28;20049;-78
2021/05/13 09:15:21;;;;;;;8.07;2.30;;;22.00;69.10;;;;;;4974269;28;20082;-79
2021/05/13 09:18:07;;;;;;;12.47;2.60;;;21.60;70.90;;;;;;4980080;28;20047;-79
2021/05/13 09:20:37;;;;;;;11.02;2.47;;;21.10;70.90;;;;;;4974313;28;20497;-78
2021/05/13 09:23:18;;;;;;;11.18;2.40;;;21.30;70.70;;;;;;4987680;28;20038;-79
2021/05/13 09:25:45;;;;;;;9.85;2.53;;;21.70;70.10;;;;;;4992363;28;20030;-80
2021/05/13 09:28:11;;;;;;;10.93;2.60;;;21.50;70.00;;;;;;4972810;28;20393;-78
2021/05/13 09:30:37;;;;;;;7.22;2.42;;;22.00;70.60;;;;;;4969907;28;20510;-79
2021/05/13 09:33:08;;;;;;;16.50;2.63;;;21.90;70.50;;;;;;4974087;28;20023;-79
2021/05/13 09:35:36;;;;;;;11.13;2.28;;;21.60;71.50;;;;;;4978667;28;20050;-79
2021/05/13 09:38:03;;;;;;;12.30;2.80;;;22.20;70.70;;;;;;4993109;28;20030;-79
2021/05/13 09:40:39;;;;;;;17.20;2.72;;;22.30;67.20;;;;;;4975716;28;20109;-77
2021/05/13 09:43:16;;;;;;;10.77;2.70;;;22.40;68.70;;;;;;4988139;28;20022;-79
2021/05/13 09:45:43;;;;;;;9.40;2.50;;;22.40;67.70;;;;;;4984493;28;20033;-79
2021/05/13 09:48:09;;;;;;;13.50;2.83;;;22.90;67.10;;;;;;4970355;28;20130;-79
2021/05/13 09:50:34;;;;;;;8.32;2.55;;;22.40;68.20;;;;;;4984358;28;20533;-79
2021/05/13 09:53:02;;;;;;;17.42;2.92;;;22.50;67.30;;;;;;4975724;28;20035;-77
2021/05/13 09:55:33;;;;;;;12.48;2.60;;;22.20;67.80;;;;;;4974387;28;20023;-79
2021/05/13 09:58:10;;;;;;;13.27;2.72;;;22.10;69.00;;;;;;4973857;28;20027;-79
2021/05/13 10:00:40;;;;;;;11.80;2.60;;;22.30;68.30;;;;;;4980567;28;20537;-79
2021/05/13 10:03:10;;;;;;;13.73;2.63;;;22.50;68.90;;;;;;4980875;28;20065;-79
2021/05/13 10:05:37;;;;;;;7.53;2.40;;;23.30;65.20;;;;;;4959253;28;20046;-79
2021/05/13 10:08:03;;;;;;;11.52;2.67;;;22.30;66.00;;;;;;4975948;28;20025;-79
2021/05/13 10:10:29;;;;;;;8.15;2.30;;;22.10;67.80;;;;;;4975258;28;20022;-79
2021/05/13 10:12:57;;;;;;;13.63;2.50;;;22.50;66.10;;;;;;4992861;28;20037;-79
2021/05/13 10:15:25;;;;;;;11.07;2.70;;;22.60;67.70;;;;;;4971127;28;20109;-79
2021/05/13 10:17:55;;;;;;;9.15;2.50;;;23.00;65.80;;;;;;4973376;28;20474;-79
2021/05/13 10:20:23;;;;;;;15.30;2.40;;;22.50;66.70;;;;;;4982190;28;20035;-79
2021/05/13 10:22:49;;;;;;;17.50;2.85;;;22.50;66.60;;;;;;4986959;28;20026;-79
2021/05/13 10:25:20;;;;;;;13.93;2.53;;;22.50;67.00;;;;;;4991944;28;20068;-79
2021/05/13 10:28:04;;;;;;;11.38;2.60;;;22.60;66.50;;;;;;4981603;28;20043;-79
2021/05/13 10:30:32;;;;;;;9.90;2.90;;;22.30;67.00;;;;;;4981333;28;20449;-79
2021/05/13 10:33:13;;;;;;;12.88;2.95;;;22.40;66.90;;;;;;4977758;28;20027;-79
2021/05/13 10:35:58;;;;;;;13.70;2.40;;;22.10;66.50;;;;;;4983530;28;20119;-79
2021/05/13 10:38:38;;;;;;;13.98;2.28;;;21.60;67.80;;;;;;4992051;28;20494;-78
2021/05/13 10:41:33;;;;;;;15.55;2.75;;;20.30;72.10;;;;;;4979111;28;20018;-78
2021/05/13 10:44:11;;;;;;;16.33;3.00;;;21.10;70.20;;;;;;4988778;28;20074;-79
2021/05/13 10:46:54;;;;;;;12.30;2.85;;;21.20;69.50;;;;;;4973755;28;20043;-79
2021/05/13 10:49:25;;;;;;;16.00;2.75;;;21.30;69.20;;;;;;4983975;28;20279;-79
2021/05/13 10:52:16;;;;;;;13.82;2.38;;;21.80;70.80;;;;;;4979848;28;20110;-78
2021/05/13 10:54:46;;;;;;;10.93;2.50;;;21.80;68.70;;;;;;5000681;28;20069;-79
2021/05/13 10:57:14;;;;;;;12.40;2.58;;;21.50;70.30;;;;;;4996350;28;20064;-79
2021/05/13 11:02:38;;;;;;;13.30;2.20;;;20.70;70.90;;;;;;4966777;29;20532;-79
2021/05/13 11:05:22;;;;;;;11.70;2.45;;;21.30;69.20;;;;;;4982965;28;20019;-79
2021/05/13 11:07:48;;;;;;;10.52;2.30;;;22.10;68.70;;;;;;4985391;28;20039;-79
2021/05/13 11:10:14;;;;;;;8.32;2.22;;;23.10;64.90;;;;;;4966470;28;20081;-79
2021/05/13 11:12:41;;;;;;;7.68;2.05;;;21.30;66.10;;;;;;4979816;28;20034;-80
2021/05/13 11:18:00;;;;;;;9.27;2.22;;;20.70;72.00;;;;;;4976714;28;20164;-79
2021/05/13 11:20:31;;;;;;;11.27;2.20;;;20.00;72.60;;;;;;4969011;28;20153;-79
2021/05/13 11:23:17;;;;;;;8.98;2.65;;;20.30;72.00;;;;;;4966226;28;20433;-79
2021/05/13 11:25:45;;;;;;;10.00;2.13;;;22.00;68.80;;;;;;4981230;28;20039;-79
2021/05/13 11:28:23;;;;;;;12.38;2.50;;;22.10;67.60;;;;;;4991909;28;20026;-79
2021/05/13 11:30:51;;;;;;;12.82;2.63;;;22.10;69.70;;;;;;4977228;28;20023;-78
2021/05/13 11:33:17;;;;;;;9.00;2.55;;;22.20;65.40;;;;;;4974395;28;20122;-79
2021/05/13 11:35:43;;;;;;;11.32;2.50;;;21.90;66.40;;;;;;4978042;28;20531;-80
2021/05/13 11:38:22;;;;;;;15.02;2.47;;;22.40;66.10;;;;;;4982414;28;20050;-78
2021/05/13 11:40:52;;;;;;;10.43;2.17;;;21.60;66.60;;;;;;4982363;28;20066;-79
2021/05/13 11:43:27;;;;;;;14.13;2.60;;;21.30;68.30;;;;;;4979920;28;20019;-79
2021/05/13 11:45:55;;;;;;;7.00;2.22;;;21.70;69.50;;;;;;4976261;28;20027;-78
2021/05/13 11:48:22;;;;;;;9.38;1.77;;;21.80;66.00;;;;;;4987398;28;20156;-79
2021/05/13 11:50:48;;;;;;;7.22;2.05;;;22.10;68.00;;;;;;4976646;28;20457;-79
2021/05/13 11:53:15;;;;;;;9.88;2.28;;;21.70;67.30;;;;;;4983452;28;20027;-79
2021/05/13 11:55:42;;;;;;;11.75;2.63;;;20.90;67.40;;;;;;4988575;28;20022;-79
2021/05/13 11:58:10;;;;;;;14.27;2.00;;;19.90;71.30;;;;;;4987771;28;20451;-79
2021/05/13 12:00:36;;;;;;;13.35;2.33;;;20.10;71.90;;;;;;4975848;28;20023;-79
2021/05/13 12:03:13;;;;;;;9.10;1.77;;;20.10;70.00;;;;;;4963873;28;20510;-79
2021/05/13 12:05:48;;;;;;;12.85;2.30;;;19.80;70.20;;;;;;4984738;28;20066;-79
2021/05/13 12:08:18;;;;;;;16.52;2.22;;;19.80;71.10;;;;;;4975654;28;20433;-79
2021/05/13 12:10:44;;;;;;;10.70;2.17;;;20.10;71.00;;;;;;4988606;28;20023;-79
2021/05/13 12:13:10;;;;;;;12.32;2.33;;;20.10;70.60;;;;;;4975615;28;20023;-79
2021/05/13 12:15:36;;;;;;;8.98;2.25;;;19.70;71.80;;;;;;4979039;28;20482;-79
2021/05/13 12:18:02;;;;;;;7.22;1.92;;;20.10;70.80;;;;;;4983600;28;20047;-79
2021/05/13 12:20:28;;;;;;;8.73;1.90;;;19.80;70.90;;;;;;4980876;28;20027;-79
2021/05/13 12:22:54;;;;;;;11.95;1.70;;;20.00;70.80;;;;;;4975879;28;20364;-79
2021/05/13 12:25:20;;;;;;;7.20;1.80;;;20.90;68.40;;;;;;4979391;28;20063;-78
2021/05/13 12:27:45;;;;;;;10.07;1.63;;;21.40;67.00;;;;;;4987571;28;20058;-78
2021/05/13 12:30:12;;;;;;;8.98;1.98;;;21.80;64.90;;;;;;4985351;28;20034;-79
2021/05/13 12:32:38;;;;;;;7.18;1.88;;;21.20;64.30;;;;;;4985523;28;20038;-79
2021/05/13 12:35:27;;;;;;;10.55;2.40;;;20.60;68.30;;;;;;4974999;28;20097;-79
2021/05/13 12:37:53;;;;;;;13.70;2.20;;;20.40;66.80;;;;;;4982732;28;20555;-79
2021/05/13 12:40:20;;;;;;;9.07;1.90;;;20.00;70.70;;;;;;4980281;28;20130;-79
2021/05/13 12:42:45;;;;;;;6.20;1.60;;;20.20;68.30;;;;;;4982762;28;20026;-79
2021/05/13 12:45:21;;;;;;;6.03;1.27;;;20.30;69.40;;;;;;4974981;28;20023;-79
2021/05/13 12:48:01;;;;;;;6.35;1.73;;;19.50;64.00;;;;;;4975049;28;20371;-79
2021/05/13 12:50:28;;;;;;;5.63;1.27;;;18.90;69.20;;;;;;4971800;28;20027;-79
2021/05/13 12:53:14;;;;;;;11.30;1.50;;;19.10;67.10;;;;;;4975163;28;20113;-79
2021/05/13 12:55:44;;;;;;;6.28;1.50;;;18.80;69.00;;;;;;4985962;28;20023;-78